createdAt,value
2022-11-24T00:01:23.755Z,100.00
2022-11-24T00:04:14.419Z,100.00
2022-11-24T00:06:41.726Z,100.00
2022-11-24T00:09:10.819Z,100.00
2022-11-24T00:11:41.068Z,100.00
2022-11-24T00:14:08.505Z,100.00
2022-11-24T00:16:37.443Z,100.00
2022-11-24T00:19:09.308Z,100.00
2022-11-24T00:21:38.156Z,100.00
2022-11-24T00:24:06.408Z,100.00
2022-11-24T00:26:35.156Z,100.00
2022-11-24T00:29:05.861Z,100.00
2022-11-24T00:31:36.905Z,100.00
2022-11-24T00:34:07.376Z,100.00
2022-11-24T00:36:36.013Z,100.00
2022-11-24T00:39:11.140Z,100.00
2022-11-24T00:41:38.967Z,100.00
2022-11-24T00:44:06.647Z,100.00
2022-11-24T00:46:34.926Z,100.00
2022-11-24T00:49:02.560Z,100.00
2022-11-24T00:51:30.539Z,100.00
2022-11-24T00:54:01.836Z,100.00
2022-11-24T00:56:30.376Z,100.00
2022-11-24T00:58:58.066Z,100.00
2022-11-24T01:01:27.608Z,100.00
2022-11-24T01:03:55.868Z,100.00
2022-11-24T01:06:26.045Z,100.00
2022-11-24T01:08:54.472Z,100.00
2022-11-24T01:11:51.599Z,100.00
2022-11-24T01:14:22.407Z,100.00
2022-11-24T01:16:49.944Z,100.00
2022-11-24T01:19:17.947Z,100.00
2022-11-24T01:21:45.951Z,100.00
2022-11-24T01:24:13.642Z,100.00
2022-11-24T01:26:41.412Z,100.00
2022-11-24T01:29:10.613Z,100.00
2022-11-24T01:31:38.506Z,100.00
2022-11-24T01:34:06.449Z,100.00
2022-11-24T01:36:34.086Z,100.00
2022-11-24T01:39:01.512Z,100.00
2022-11-24T01:41:28.799Z,100.00
2022-11-24T01:43:56.752Z,100.00
2022-11-24T01:46:43.807Z,100.00
2022-11-24T01:49:18.077Z,100.00
2022-11-24T01:51:53.269Z,100.00
2022-11-24T01:54:25.392Z,100.00
2022-11-24T01:56:56.264Z,100.00
2022-11-24T01:59:26.661Z,100.00
2022-11-24T02:01:56.186Z,100.00
2022-11-24T02:04:29.547Z,100.00
2022-11-24T02:07:00.528Z,100.00
2022-11-24T02:09:34.395Z,100.00
2022-11-24T02:12:02.543Z,100.00
2022-11-24T02:14:30.059Z,100.00
2022-11-24T02:16:57.442Z,100.00
2022-11-24T02:19:59.246Z,100.00
2022-11-24T02:22:44.521Z,100.00
2022-11-24T02:25:24.069Z,100.00
2022-11-24T02:27:54.252Z,100.00
2022-11-24T02:30:22.536Z,100.00
2022-11-24T02:32:50.283Z,100.00
2022-11-24T02:35:17.838Z,100.00
2022-11-24T02:37:45.254Z,100.00
2022-11-24T02:40:16.782Z,100.00
2022-11-24T02:42:47.236Z,100.00
2022-11-24T02:45:16.547Z,100.00
2022-11-24T02:47:44.544Z,100.00
2022-11-24T02:50:12.200Z,100.00
2022-11-24T02:52:39.546Z,100.00
2022-11-24T02:55:07.176Z,100.00
2022-11-24T02:57:34.781Z,100.00
2022-11-24T03:00:02.329Z,100.00
2022-11-24T03:02:30.712Z,100.00
2022-11-24T03:05:00.837Z,100.00
2022-11-24T03:07:28.244Z,100.00
2022-11-24T03:09:55.678Z,100.00
2022-11-24T03:12:23.003Z,100.00
2022-11-24T03:14:50.417Z,100.00
2022-11-24T03:17:17.782Z,100.00
2022-11-24T03:19:45.249Z,100.00
2022-11-24T03:22:13.615Z,100.00
2022-11-24T03:24:41.110Z,100.00
2022-11-24T03:27:08.533Z,100.00
2022-11-24T03:29:35.935Z,100.00
2022-11-24T03:32:03.329Z,100.00
2022-11-24T03:34:30.843Z,100.00
2022-11-24T03:36:58.505Z,100.00
2022-11-24T03:39:26.075Z,100.00
2022-11-24T03:41:53.661Z,100.00
2022-11-24T03:44:21.157Z,100.00
2022-11-24T03:46:48.606Z,100.00
2022-11-24T03:49:16.073Z,100.00
2022-11-24T03:51:43.430Z,100.00
2022-11-24T03:54:10.809Z,100.00
2022-11-24T03:56:38.225Z,100.00
2022-11-24T03:59:05.726Z,100.00
2022-11-24T04:01:33.256Z,100.00
2022-11-24T04:04:00.915Z,100.00
2022-11-24T04:06:28.370Z,100.00
2022-11-24T04:08:58.489Z,100.00
2022-11-24T04:11:44.555Z,100.00
2022-11-24T04:14:13.703Z,100.00
2022-11-24T04:16:44.385Z,100.00
2022-11-24T04:19:12.640Z,100.00
2022-11-24T04:21:40.011Z,100.00
2022-11-24T04:24:07.510Z,100.00
2022-11-24T04:26:35.009Z,100.00
2022-11-24T04:29:02.556Z,100.00
2022-11-24T04:31:30.116Z,100.00
2022-11-24T04:33:57.726Z,100.00
2022-11-24T04:36:25.173Z,100.00
2022-11-24T04:39:25.474Z,100.00
2022-11-24T04:41:43.740Z,100.00
2022-11-24T04:44:11.149Z,100.00
2022-11-24T04:46:38.652Z,100.00
2022-11-24T04:49:06.317Z,100.00
2022-11-24T04:51:33.665Z,100.00
2022-11-24T04:54:01.096Z,100.00
2022-11-24T04:56:28.587Z,100.00
2022-11-24T04:58:55.952Z,100.00
2022-11-24T05:01:26.527Z,100.00
2022-11-24T05:03:55.118Z,100.00
2022-11-24T05:06:23.506Z,100.00
2022-11-24T05:08:52.533Z,100.00
2022-11-24T05:11:19.986Z,100.00
2022-11-24T05:13:47.412Z,100.00
2022-11-24T05:16:14.829Z,100.00
2022-11-24T05:18:42.217Z,100.00
2022-11-24T05:21:09.653Z,100.00
2022-11-24T05:23:37.196Z,100.00
2022-11-24T05:26:04.837Z,100.00
2022-11-24T05:28:34.945Z,100.00
2022-11-24T05:31:03.289Z,100.00
2022-11-24T05:33:33.307Z,100.00
2022-11-24T05:36:02.776Z,100.00
2022-11-24T05:38:30.652Z,100.00
2022-11-24T05:41:06.035Z,100.00
2022-11-24T05:43:33.673Z,100.00
2022-11-24T05:46:02.004Z,100.00
2022-11-24T05:48:29.490Z,100.00
2022-11-24T05:50:58.034Z,100.00
2022-11-24T05:53:26.921Z,100.00
2022-11-24T05:55:54.349Z,100.00
2022-11-24T05:58:22.026Z,100.00
2022-11-24T06:00:49.425Z,100.00
2022-11-24T06:03:16.900Z,100.00
2022-11-24T06:05:47.113Z,100.00
2022-11-24T06:08:14.989Z,100.00
2022-11-24T06:10:42.390Z,100.00
2022-11-24T06:13:09.820Z,100.00
2022-11-24T06:15:37.807Z,100.00
2022-11-24T06:18:05.325Z,100.00
2022-11-24T06:20:33.232Z,100.00
2022-11-24T06:23:01.320Z,100.00
2022-11-24T06:25:29.382Z,100.00
2022-11-24T06:27:57.001Z,100.00
2022-11-24T06:30:24.397Z,100.00
2022-11-24T06:32:55.584Z,100.00
2022-11-24T06:35:23.042Z,100.00
2022-11-24T06:37:50.398Z,100.00
2022-11-24T06:40:20.457Z,100.00
2022-11-24T06:42:53.693Z,100.00
2022-11-24T06:45:21.140Z,100.00
2022-11-24T06:47:48.553Z,100.00
2022-11-24T06:50:16.442Z,100.00
2022-11-24T06:52:43.951Z,100.00
2022-11-24T06:55:11.379Z,100.00
2022-11-24T06:57:38.806Z,100.00
2022-11-24T07:00:07.938Z,100.00
2022-11-24T07:02:35.519Z,100.00
2022-11-24T07:05:02.952Z,100.00
2022-11-24T07:07:30.965Z,100.00
2022-11-24T07:09:58.478Z,100.00
2022-11-24T07:12:25.780Z,100.00
2022-11-24T07:14:53.156Z,100.00
2022-11-24T07:17:20.585Z,100.00
2022-11-24T07:19:50.476Z,100.00
2022-11-24T07:22:18.357Z,100.00
2022-11-24T07:24:45.764Z,100.00
2022-11-24T07:27:13.403Z,100.00
2022-11-24T07:29:43.710Z,100.00
2022-11-24T07:32:13.771Z,100.00
2022-11-24T07:34:41.184Z,100.00
2022-11-24T07:37:11.333Z,100.00
2022-11-24T07:39:38.722Z,100.00
2022-11-24T07:42:10.490Z,100.00
2022-11-24T07:44:37.940Z,100.00
2022-11-24T07:47:07.052Z,100.00
2022-11-24T07:49:37.424Z,100.00
2022-11-24T07:52:05.186Z,100.00
2022-11-24T07:54:32.866Z,100.00
2022-11-24T07:57:00.496Z,100.00
2022-11-24T07:59:27.815Z,100.00
2022-11-24T08:01:55.209Z,100.00
2022-11-24T08:04:22.833Z,100.00
2022-11-24T08:06:50.640Z,100.00
2022-11-24T08:09:17.992Z,100.00
2022-11-24T08:11:45.413Z,100.00
2022-11-24T08:14:12.820Z,100.00
2022-11-24T08:16:40.227Z,100.00
2022-11-24T08:19:08.414Z,100.00
2022-11-24T08:21:35.829Z,100.00
2022-11-24T08:24:03.509Z,100.00
2022-11-24T08:26:30.926Z,100.00
2022-11-24T08:28:59.641Z,100.00
2022-11-24T08:31:33.590Z,100.00
2022-11-24T08:34:03.748Z,100.00
2022-11-24T08:36:32.053Z,100.00
2022-11-24T08:39:01.016Z,100.00
2022-11-24T08:41:29.582Z,100.00
2022-11-24T08:43:57.522Z,100.00
2022-11-24T08:46:25.108Z,100.00
2022-11-24T08:48:54.515Z,100.00
2022-11-24T08:51:25.043Z,100.00
2022-11-24T08:54:00.729Z,100.00
2022-11-24T08:56:32.966Z,100.00
2022-11-24T08:59:00.649Z,100.00
2022-11-24T09:01:28.735Z,100.00
2022-11-24T09:03:56.630Z,100.00
2022-11-24T09:06:28.358Z,100.00
2022-11-24T09:08:57.884Z,100.00
2022-11-24T09:11:26.161Z,99.87
2022-11-24T09:13:55.100Z,100.00
2022-11-24T09:16:26.034Z,100.00
2022-11-24T09:18:58.950Z,100.00
2022-11-24T09:21:26.721Z,99.05
2022-11-24T09:23:55.135Z,97.95
2022-11-24T09:26:34.403Z,98.25
2022-11-24T09:29:03.821Z,98.14
2022-11-24T09:31:34.506Z,96.66
2022-11-24T09:34:04.463Z,96.16
2022-11-24T09:36:32.177Z,97.02
2022-11-24T09:39:00.607Z,97.03
2022-11-24T09:42:10.717Z,96.57
2022-11-24T09:44:59.754Z,95.50
2022-11-24T09:47:38.977Z,94.54
2022-11-24T09:50:13.880Z,95.39
2022-11-24T09:52:49.696Z,95.76
2022-11-24T09:55:38.506Z,96.09
2022-11-24T09:58:22.721Z,95.40
2022-11-24T10:00:53.191Z,94.48
2022-11-24T10:03:27.540Z,93.70
2022-11-24T10:05:55.513Z,92.02
2022-11-24T10:08:50.054Z,92.16
2022-11-24T10:11:30.929Z,92.66
2022-11-24T10:14:30.642Z,91.40
2022-11-24T10:17:10.363Z,91.25
2022-11-24T10:19:59.701Z,91.35
2022-11-24T10:22:26.958Z,91.94
2022-11-24T10:25:30.782Z,91.89
2022-11-24T10:28:03.702Z,92.38
2022-11-24T10:30:31.308Z,91.92
2022-11-24T10:33:03.581Z,91.57
2022-11-24T10:35:49.552Z,91.02
2022-11-24T10:38:22.949Z,89.55
2022-11-24T10:40:59.468Z,90.62
2022-11-24T10:43:28.320Z,89.36
2022-11-24T10:46:05.537Z,89.88
2022-11-24T10:48:40.684Z,89.49
2022-11-24T10:51:40.454Z,90.22
2022-11-24T10:54:19.346Z,89.58
2022-11-24T10:56:48.556Z,87.80
2022-11-24T10:59:27.666Z,88.70
2022-11-24T11:01:55.644Z,88.27
2022-11-24T11:04:27.291Z,88.10
2022-11-24T11:07:21.625Z,88.14
2022-11-24T11:09:49.901Z,88.26
2022-11-24T11:12:44.080Z,88.58
2022-11-24T11:15:31.197Z,87.75
2022-11-24T11:18:00.352Z,87.61
2022-11-24T11:20:29.554Z,88.34
2022-11-24T11:22:58.899Z,88.53
2022-11-24T11:25:33.255Z,87.69
2022-11-24T11:28:29.843Z,87.40
2022-11-24T11:31:16.491Z,86.32
2022-11-24T11:34:05.460Z,86.12
2022-11-24T11:36:47.689Z,87.20
2022-11-24T11:39:34.879Z,87.50
2022-11-24T11:45:26.663Z,83.94
2022-11-24T11:48:03.253Z,84.91
2022-11-24T11:51:23.025Z,85.47
2022-11-24T11:53:48.329Z,86.14
2022-11-24T11:56:28.258Z,84.36
2022-11-24T11:59:06.541Z,83.78
2022-11-24T12:01:39.941Z,85.71
2022-11-24T12:04:44.437Z,85.52
2022-11-24T12:07:27.004Z,84.29
2022-11-24T12:10:16.719Z,84.29
2022-11-24T12:13:04.768Z,84.24
2022-11-24T12:15:41.738Z,83.89
2022-11-24T12:19:03.043Z,86.00
2022-11-24T12:21:52.152Z,83.88
2022-11-24T12:25:14.105Z,85.28
2022-11-24T12:28:06.774Z,85.77
2022-11-24T12:31:01.311Z,86.64
2022-11-24T12:33:51.594Z,88.26
2022-11-24T12:36:35.805Z,89.35
2022-11-24T12:39:13.528Z,88.18
2022-11-24T12:42:00.210Z,90.96
2022-11-24T12:45:06.175Z,89.06
2022-11-24T12:47:46.417Z,90.78
2022-11-24T12:50:18.597Z,90.43
2022-11-24T12:52:58.636Z,89.42
2022-11-24T12:55:28.775Z,90.05
2022-11-24T12:58:07.806Z,88.82
2022-11-24T13:00:53.428Z,88.21
2022-11-24T13:03:39.316Z,88.69
2022-11-24T13:06:11.200Z,88.71
2022-11-24T13:08:38.967Z,87.12
2022-11-24T13:11:27.504Z,87.85
2022-11-24T13:14:23.656Z,90.12
2022-11-24T13:19:42.572Z,87.31
2022-11-24T13:22:27.033Z,87.36
2022-11-24T13:25:14.540Z,86.89
2022-11-24T13:27:44.423Z,87.95
2022-11-24T13:30:33.859Z,87.21
2022-11-24T13:33:16.913Z,87.36
2022-11-24T13:36:02.925Z,85.51
2022-11-24T13:38:45.262Z,86.33
2022-11-24T13:41:51.283Z,86.46
2022-11-24T13:44:24.315Z,86.58
2022-11-24T13:47:06.121Z,86.22
2022-11-24T13:49:46.474Z,86.05
2022-11-24T13:52:35.908Z,85.33
2022-11-24T13:55:32.597Z,85.19
2022-11-24T13:58:18.293Z,85.42
2022-11-24T14:01:11.557Z,86.56
2022-11-24T14:04:07.131Z,86.50
2022-11-24T14:06:42.962Z,86.14
2022-11-24T14:09:19.289Z,85.57
2022-11-24T14:12:05.165Z,85.07
2022-11-24T14:14:32.914Z,84.73
2022-11-24T14:17:16.035Z,85.23
2022-11-24T14:19:45.593Z,85.05
2022-11-24T14:22:20.140Z,84.32
2022-11-24T14:24:53.479Z,84.40
2022-11-24T14:27:26.704Z,86.92
2022-11-24T14:30:03.527Z,87.81
2022-11-24T14:32:31.624Z,89.77
2022-11-24T14:34:59.078Z,90.48
2022-11-24T14:37:26.777Z,92.00
2022-11-24T14:39:54.257Z,92.74
2022-11-24T14:42:25.030Z,92.70
2022-11-24T14:44:58.725Z,93.62
2022-11-24T14:47:32.730Z,93.70
2022-11-24T14:50:16.361Z,93.45
2022-11-24T14:52:47.292Z,93.45
2022-11-24T14:55:25.538Z,93.86
2022-11-24T14:57:52.930Z,95.37
2022-11-24T15:00:26.999Z,95.28
2022-11-24T15:03:07.810Z,97.22
2022-11-24T15:05:54.284Z,97.24
2022-11-24T15:08:23.881Z,98.86
2022-11-24T15:10:58.048Z,99.33
2022-11-24T15:13:26.119Z,99.40
2022-11-24T15:16:01.984Z,100.00
2022-11-24T15:18:48.179Z,100.00
2022-11-24T15:21:19.346Z,100.00
2022-11-24T15:24:16.134Z,100.00
2022-11-24T15:26:44.868Z,100.00
2022-11-24T15:29:12.585Z,100.00
2022-11-24T15:31:41.326Z,100.00
2022-11-24T15:34:13.619Z,100.00
2022-11-24T15:36:41.062Z,100.00
2022-11-24T15:39:08.386Z,100.00
2022-11-24T15:41:35.734Z,100.00
2022-11-24T15:44:03.175Z,100.00
2022-11-24T15:46:37.796Z,100.00
2022-11-24T15:49:06.197Z,100.00
2022-11-24T15:51:35.507Z,100.00
2022-11-24T15:54:02.865Z,100.00
2022-11-24T15:56:35.220Z,100.00
2022-11-24T15:59:04.276Z,100.00
2022-11-24T16:01:37.000Z,100.00
2022-11-24T16:04:04.762Z,100.00
2022-11-24T16:06:32.229Z,100.00
2022-11-24T16:09:00.105Z,100.00
2022-11-24T16:11:27.478Z,100.00
2022-11-24T16:13:54.858Z,100.00
2022-11-24T16:16:24.679Z,100.00
2022-11-24T16:18:52.705Z,100.00
2022-11-24T16:21:20.018Z,100.00
2022-11-24T16:23:48.690Z,100.00
2022-11-24T16:26:16.323Z,100.00
2022-11-24T16:28:46.480Z,100.00
2022-11-24T16:31:16.055Z,100.00
2022-11-24T16:33:46.428Z,100.00
2022-11-24T16:36:14.336Z,100.00
2022-11-24T16:38:41.844Z,100.00
2022-11-24T16:41:10.408Z,100.00
2022-11-24T16:43:40.897Z,100.00
2022-11-24T16:46:17.341Z,100.00
2022-11-24T16:48:46.845Z,100.00
2022-11-24T16:51:18.590Z,100.00
2022-11-24T16:53:46.165Z,100.00
2022-11-24T16:56:14.827Z,100.00
2022-11-24T16:58:42.625Z,100.00
2022-11-24T17:01:12.737Z,100.00
2022-11-24T17:03:41.142Z,100.00
2022-11-24T17:06:11.533Z,100.00
2022-11-24T17:08:40.620Z,100.00
2022-11-24T17:11:11.014Z,100.00
2022-11-24T17:13:38.997Z,100.00
2022-11-24T17:16:12.521Z,100.00
2022-11-24T17:18:40.204Z,100.00
2022-11-24T17:21:13.774Z,100.00
2022-11-24T17:23:41.456Z,100.00
2022-11-24T17:26:12.071Z,100.00
2022-11-24T17:28:40.762Z,100.00
2022-11-24T17:31:08.208Z,100.00
2022-11-24T17:33:38.868Z,100.00
2022-11-24T17:36:06.854Z,100.00
2022-11-24T17:38:35.168Z,100.00
2022-11-24T17:41:02.998Z,100.00
2022-11-24T17:43:30.531Z,100.00
2022-11-24T17:46:00.988Z,100.00
2022-11-24T17:48:28.985Z,100.00
2022-11-24T17:51:07.982Z,100.00
2022-11-24T17:53:37.641Z,100.00
2022-11-24T17:56:08.835Z,100.00
2022-11-24T17:58:42.744Z,100.00
2022-11-24T18:01:14.704Z,100.00
2022-11-24T18:03:43.364Z,100.00
2022-11-24T18:06:12.569Z,100.00
2022-11-24T18:08:42.574Z,100.00
2022-11-24T18:11:13.026Z,100.00
2022-11-24T18:14:00.956Z,100.00
2022-11-24T18:16:31.086Z,100.00
2022-11-24T18:19:09.910Z,100.00
2022-11-24T18:21:40.063Z,100.00
2022-11-24T18:24:10.106Z,100.00
2022-11-24T18:26:39.106Z,100.00
2022-11-24T18:29:06.753Z,100.00
2022-11-24T18:31:37.471Z,100.00
2022-11-24T18:34:06.062Z,100.00
2022-11-24T18:36:34.948Z,100.00
2022-11-24T18:39:04.706Z,100.00
2022-11-24T18:41:32.528Z,100.00
2022-11-24T18:44:02.956Z,100.00
2022-11-24T18:46:30.318Z,100.00
2022-11-24T18:48:57.725Z,100.00
2022-11-24T18:51:25.250Z,100.00
2022-11-24T18:54:00.039Z,100.00
2022-11-24T18:56:27.639Z,100.00
2022-11-24T18:58:56.598Z,100.00
2022-11-24T19:01:26.693Z,100.00
2022-11-24T19:03:56.437Z,100.00
2022-11-24T19:06:32.834Z,100.00
2022-11-24T19:09:11.807Z,100.00
2022-11-24T19:11:40.802Z,100.00
2022-11-24T19:14:11.099Z,100.00
2022-11-24T19:16:39.391Z,100.00
2022-11-24T19:19:07.061Z,100.00
2022-11-24T19:21:37.259Z,100.00
2022-11-24T19:24:06.544Z,100.00
2022-11-24T19:26:37.149Z,100.00
2022-11-24T19:29:06.117Z,100.00
2022-11-24T19:31:34.803Z,100.00
2022-11-24T19:34:03.593Z,100.00
2022-11-24T19:36:31.538Z,100.00
2022-11-24T19:38:59.608Z,100.00
2022-11-24T19:41:29.653Z,100.00
2022-11-24T19:43:58.485Z,100.00
2022-11-24T19:46:27.758Z,100.00
2022-11-24T19:48:57.309Z,100.00
2022-11-24T19:51:27.641Z,100.00
2022-11-24T19:53:55.037Z,100.00
2022-11-24T19:56:28.037Z,100.00
2022-11-24T19:58:56.026Z,100.00
2022-11-24T20:01:26.222Z,100.00
2022-11-24T20:03:58.898Z,100.00
2022-11-24T20:06:28.743Z,100.00
2022-11-24T20:08:58.632Z,100.00
2022-11-24T20:11:27.604Z,100.00
2022-11-24T20:13:55.604Z,100.00
2022-11-24T20:16:29.777Z,100.00
2022-11-24T20:19:05.721Z,100.00
2022-11-24T20:21:36.425Z,100.00
2022-11-24T20:24:16.160Z,100.00
2022-11-24T20:26:46.869Z,100.00
2022-11-24T20:29:15.152Z,100.00
2022-11-24T20:31:45.494Z,100.00
2022-11-24T20:34:13.780Z,100.00
2022-11-24T20:36:45.809Z,100.00
2022-11-24T20:39:25.452Z,100.00
2022-11-24T20:41:54.418Z,100.00
2022-11-24T20:44:23.055Z,100.00
2022-11-24T20:46:50.794Z,100.00
2022-11-24T20:49:21.848Z,100.00
2022-11-24T20:51:54.269Z,100.00
2022-11-24T20:54:25.078Z,100.00
2022-11-24T20:56:53.630Z,100.00
2022-11-24T20:59:25.842Z,100.00
2022-11-24T21:01:57.819Z,100.00
2022-11-24T21:04:27.059Z,100.00
2022-11-24T21:06:58.620Z,100.00
2022-11-24T21:09:28.252Z,100.00
2022-11-24T21:11:55.577Z,100.00
2022-11-24T21:14:25.922Z,100.00
2022-11-24T21:16:53.368Z,100.00
2022-11-24T21:19:21.233Z,100.00
2022-11-24T21:21:48.886Z,100.00
2022-11-24T21:24:18.975Z,100.00
2022-11-24T21:26:47.844Z,100.00
2022-11-24T21:29:22.290Z,100.00
2022-11-24T21:31:49.776Z,100.00
2022-11-24T21:34:18.630Z,100.00
2022-11-24T21:36:46.597Z,100.00
2022-11-24T21:39:14.972Z,100.00
2022-11-24T21:41:43.520Z,100.00
2022-11-24T21:44:12.861Z,100.00
2022-11-24T21:46:45.691Z,100.00
2022-11-24T21:49:16.861Z,100.00
2022-11-24T21:51:44.175Z,100.00
2022-11-24T21:54:11.497Z,100.00
2022-11-24T21:56:38.856Z,100.00
2022-11-24T21:59:06.166Z,100.00
2022-11-24T22:01:33.583Z,100.00
2022-11-24T22:04:01.113Z,100.00
2022-11-24T22:06:28.541Z,100.00
2022-11-24T22:08:57.817Z,100.00
2022-11-24T22:11:28.473Z,100.00
2022-11-24T22:13:56.041Z,100.00
2022-11-24T22:16:27.091Z,100.00
2022-11-24T22:18:54.668Z,100.00
2022-11-24T22:21:24.400Z,100.00
2022-11-24T22:23:55.185Z,100.00
2022-11-24T22:26:23.943Z,100.00
2022-11-24T22:28:52.064Z,100.00
2022-11-24T22:31:21.683Z,100.00
2022-11-24T22:33:50.274Z,100.00
2022-11-24T22:36:20.940Z,100.00
2022-11-24T22:38:53.705Z,100.00
2022-11-24T22:41:21.427Z,100.00
2022-11-24T22:43:49.240Z,100.00
2022-11-24T22:46:24.928Z,100.00
2022-11-24T22:48:53.702Z,100.00
2022-11-24T22:51:26.812Z,100.00
2022-11-24T22:53:56.758Z,100.00
2022-11-24T22:56:24.530Z,100.00
2022-11-24T22:58:51.924Z,100.00
2022-11-24T23:01:21.586Z,100.00
2022-11-24T23:03:49.941Z,100.00
2022-11-24T23:06:24.806Z,100.00
2022-11-24T23:08:53.148Z,100.00
2022-11-24T23:11:29.061Z,100.00
2022-11-24T23:14:02.300Z,100.00
2022-11-24T23:16:31.817Z,100.00
2022-11-24T23:18:59.411Z,100.00
2022-11-24T23:21:29.369Z,100.00
2022-11-24T23:23:59.033Z,100.00
2022-11-24T23:26:31.841Z,100.00
2022-11-24T23:28:59.319Z,100.00
2022-11-24T23:31:28.870Z,100.00
2022-11-24T23:34:01.566Z,100.00
2022-11-24T23:36:29.922Z,100.00
2022-11-24T23:39:05.206Z,100.00
2022-11-24T23:41:32.897Z,100.00
2022-11-24T23:44:00.325Z,100.00
2022-11-24T23:46:28.308Z,100.00
2022-11-24T23:48:55.777Z,100.00
2022-11-24T23:51:31.533Z,100.00
2022-11-24T23:54:00.210Z,100.00
2022-11-24T23:56:32.550Z,100.00
2022-11-24T23:59:01.686Z,100.00
